createdAt,value
2022-12-22T00:02:35.170Z,-2.86
2022-12-22T00:05:59.176Z,-2.72
2022-12-22T00:09:24.127Z,-3.19
2022-12-22T00:12:48.271Z,-3.05
2022-12-22T00:16:11.939Z,-2.89
2022-12-22T00:19:35.654Z,-3.38
2022-12-22T00:22:59.735Z,-3.32
2022-12-22T00:26:24.309Z,-3.34
2022-12-22T00:29:54.591Z,-3.53
2022-12-22T00:33:18.781Z,-3.54
2022-12-22T00:36:43.216Z,-3.02
2022-12-22T00:40:07.899Z,-3.33
2022-12-22T00:43:33.365Z,-3.02
2022-12-22T00:46:59.347Z,-2.98
2022-12-22T00:50:24.220Z,-2.78
2022-12-22T00:53:48.539Z,-2.80
2022-12-22T00:57:12.082Z,-3.25
2022-12-22T01:00:37.977Z,-3.27
2022-12-22T01:04:01.902Z,-3.81
2022-12-22T01:07:25.953Z,-3.56
2022-12-22T01:10:50.391Z,-3.27
2022-12-22T01:14:13.844Z,-3.39
2022-12-22T01:17:38.769Z,-3.49
2022-12-22T01:21:02.426Z,-3.41
2022-12-22T01:24:30.931Z,-3.14
2022-12-22T01:27:54.820Z,-3.25
2022-12-22T01:31:35.408Z,-2.89
2022-12-22T01:35:00.684Z,-2.76
2022-12-22T01:38:24.516Z,-3.03
2022-12-22T01:41:48.646Z,-3.20
2022-12-22T01:45:12.554Z,-3.44
2022-12-22T01:48:37.666Z,-3.76
2022-12-22T01:52:02.471Z,-3.90
2022-12-22T01:55:31.035Z,-3.21
2022-12-22T01:59:00.281Z,-2.93
2022-12-22T02:02:25.743Z,-2.86
2022-12-22T02:05:53.018Z,-3.12
2022-12-22T02:09:33.490Z,-3.57
2022-12-22T02:13:04.234Z,-3.81
2022-12-22T02:16:33.588Z,-3.85
2022-12-22T02:20:21.528Z,-3.42
2022-12-22T02:24:06.094Z,-3.53
2022-12-22T02:27:31.435Z,-3.73
2022-12-22T02:30:55.349Z,-4.06
2022-12-22T02:34:19.273Z,-3.93
2022-12-22T02:37:49.212Z,-4.18
2022-12-22T02:41:25.699Z,-3.75
2022-12-22T02:45:04.977Z,-3.66
2022-12-22T02:48:34.794Z,-3.43
2022-12-22T02:52:09.935Z,-3.33
2022-12-22T02:55:35.311Z,-3.48
2022-12-22T02:58:59.220Z,-3.41
2022-12-22T03:02:24.072Z,-3.46
2022-12-22T03:05:47.682Z,-3.88
2022-12-22T03:09:11.606Z,-3.90
2022-12-22T03:12:35.332Z,-3.71
2022-12-22T03:15:59.503Z,-3.78
2022-12-22T03:19:24.467Z,-4.07
2022-12-22T03:22:48.321Z,-4.12
2022-12-22T03:25:55.230Z,-4.05
2022-12-22T03:29:01.347Z,-3.70
2022-12-22T03:32:07.598Z,-3.69
2022-12-22T03:35:15.275Z,-3.70
2022-12-22T03:38:21.694Z,-3.87
2022-12-22T03:41:45.515Z,-4.18
2022-12-22T03:45:08.839Z,-3.85
2022-12-22T03:48:15.171Z,-3.46
2022-12-22T03:51:22.579Z,-3.55
2022-12-22T03:54:29.027Z,-3.76
2022-12-22T03:57:35.222Z,-3.51
2022-12-22T04:00:41.467Z,-3.16
2022-12-22T04:03:47.496Z,-3.56
2022-12-22T04:06:55.526Z,-3.67
2022-12-22T04:10:19.454Z,-3.72
2022-12-22T04:13:25.207Z,-3.74
2022-12-22T04:16:31.508Z,-4.13
2022-12-22T04:19:37.629Z,-4.29
2022-12-22T04:22:46.584Z,-4.39
2022-12-22T04:25:52.801Z,-3.89
2022-12-22T04:28:58.830Z,-3.95
2022-12-22T04:32:05.355Z,-3.66
2022-12-22T04:35:12.353Z,-4.09
2022-12-22T04:38:20.174Z,-4.04
2022-12-22T04:41:26.571Z,-4.05
2022-12-22T04:44:32.929Z,-4.69
2022-12-22T04:47:39.110Z,-3.91
2022-12-22T04:50:45.543Z,-4.22
2022-12-22T04:53:53.009Z,-4.05
2022-12-22T04:56:59.512Z,-3.83
2022-12-22T05:00:06.480Z,-4.50
2022-12-22T05:03:12.978Z,-4.67
2022-12-22T05:06:19.116Z,-3.98
2022-12-22T05:09:26.745Z,-3.89
2022-12-22T05:12:50.283Z,-4.25
2022-12-22T05:15:56.324Z,-4.47
2022-12-22T05:19:02.318Z,-4.44
2022-12-22T05:22:08.626Z,-4.32
2022-12-22T05:25:17.736Z,-4.28
2022-12-22T05:28:24.025Z,-3.97
2022-12-22T05:31:30.269Z,-4.12
2022-12-22T05:34:36.375Z,-4.23
2022-12-22T05:37:42.696Z,-3.66
2022-12-22T05:40:50.691Z,-3.80
2022-12-22T05:43:56.872Z,-4.30
2022-12-22T05:47:03.293Z,-3.94
2022-12-22T05:50:11.558Z,-3.96
2022-12-22T05:53:17.759Z,-3.64
2022-12-22T05:56:25.356Z,-3.97
2022-12-22T05:59:31.665Z,-3.71
2022-12-22T06:02:37.980Z,-3.65
2022-12-22T06:05:44.364Z,-3.91
2022-12-22T06:08:50.725Z,-4.23
2022-12-22T06:11:58.281Z,-4.69
2022-12-22T06:15:05.511Z,-4.28
2022-12-22T06:18:11.937Z,-4.72
2022-12-22T06:21:17.903Z,-4.90
2022-12-22T06:24:23.949Z,-4.73
2022-12-22T06:27:31.096Z,-4.26
2022-12-22T06:30:37.308Z,-4.34
2022-12-22T06:33:43.407Z,-4.34
2022-12-22T06:36:50.391Z,-3.70
2022-12-22T06:39:56.657Z,-3.42
2022-12-22T06:43:10.790Z,-3.52
2022-12-22T06:46:17.429Z,-3.17
2022-12-22T06:49:23.725Z,-3.03
2022-12-22T06:52:30.120Z,-3.43
2022-12-22T06:55:36.425Z,-3.03
2022-12-22T06:58:44.186Z,-2.31
2022-12-22T07:01:50.574Z,-2.18
2022-12-22T07:04:56.735Z,-1.94
2022-12-22T07:08:08.513Z,-1.68
2022-12-22T07:11:16.491Z,-1.52
2022-12-22T07:14:24.223Z,-1.88
2022-12-22T07:17:30.348Z,-1.72
2022-12-22T07:20:36.410Z,-1.43
2022-12-22T07:23:42.767Z,-0.94
2022-12-22T07:26:48.764Z,-0.85
2022-12-22T07:29:56.430Z,-0.82
2022-12-22T07:33:02.623Z,-0.76
2022-12-22T07:36:12.396Z,-0.51
2022-12-22T07:39:18.841Z,-0.30
2022-12-22T07:42:42.844Z,-0.23
2022-12-22T07:45:50.615Z,0.09
2022-12-22T07:49:14.299Z,0.17
2022-12-22T07:52:20.532Z,0.14
2022-12-22T07:55:29.143Z,0.31
2022-12-22T07:58:35.698Z,0.33
2022-12-22T08:01:44.020Z,0.54
2022-12-22T08:04:50.296Z,0.80
2022-12-22T08:07:56.409Z,0.82
2022-12-22T08:11:03.614Z,0.74
2022-12-22T08:14:10.492Z,0.85
2022-12-22T08:17:18.922Z,1.01
2022-12-22T08:20:26.090Z,1.09
2022-12-22T08:23:32.727Z,1.32
2022-12-22T08:26:44.072Z,1.44
2022-12-22T08:29:56.916Z,1.83
2022-12-22T08:33:04.951Z,1.81
2022-12-22T08:36:12.445Z,1.96
2022-12-22T08:39:21.932Z,2.15
2022-12-22T08:42:28.484Z,2.28
2022-12-22T08:45:34.681Z,2.47
2022-12-22T08:48:42.279Z,2.18
2022-12-22T08:51:49.160Z,2.60
2022-12-22T08:54:55.274Z,2.71
2022-12-22T08:58:01.641Z,2.86
2022-12-22T09:01:07.530Z,2.93
2022-12-22T09:04:15.910Z,2.86
2022-12-22T09:07:22.060Z,3.24
2022-12-22T09:10:28.213Z,3.26
2022-12-22T09:13:34.565Z,3.27
2022-12-22T09:16:41.767Z,3.38
2022-12-22T09:19:49.641Z,3.41
2022-12-22T09:22:56.085Z,3.92
2022-12-22T09:26:07.587Z,4.23
2022-12-22T09:29:15.746Z,4.42
2022-12-22T09:32:22.361Z,4.55
2022-12-22T09:35:29.843Z,4.65
2022-12-22T09:38:37.250Z,4.81
2022-12-22T09:41:46.691Z,4.44
2022-12-22T09:44:53.165Z,4.95
2022-12-22T09:47:59.432Z,5.15
2022-12-22T09:51:12.911Z,5.28
2022-12-22T09:54:19.730Z,4.90
2022-12-22T09:57:31.472Z,5.17
2022-12-22T10:00:38.457Z,5.37
2022-12-22T10:03:52.736Z,5.34
2022-12-22T10:07:13.946Z,5.28
2022-12-22T10:10:25.502Z,5.74
2022-12-22T10:13:32.154Z,5.92
2022-12-22T10:16:38.655Z,6.21
2022-12-22T10:19:45.298Z,6.24
2022-12-22T10:22:55.671Z,6.25
2022-12-22T10:29:34.774Z,6.53
2022-12-22T10:32:41.271Z,6.77
2022-12-22T10:35:53.566Z,6.56
2022-12-22T10:39:04.146Z,6.79
2022-12-22T10:42:13.891Z,7.01
2022-12-22T10:45:22.739Z,6.98
2022-12-22T10:48:34.791Z,7.19
2022-12-22T10:51:42.353Z,7.34
2022-12-22T10:54:50.458Z,7.51
2022-12-22T10:58:15.822Z,7.73
2022-12-22T11:01:28.808Z,7.71
2022-12-22T11:04:35.291Z,7.57
2022-12-22T11:07:43.419Z,8.14
2022-12-22T11:10:56.623Z,8.16
2022-12-22T11:14:15.865Z,8.19
2022-12-22T11:17:31.724Z,8.15
2022-12-22T11:20:52.973Z,8.40
2022-12-22T11:24:06.653Z,8.38
2022-12-22T11:27:29.011Z,8.80
2022-12-22T11:30:40.931Z,8.55
2022-12-22T11:34:00.182Z,8.78
2022-12-22T11:37:22.903Z,8.69
2022-12-22T11:40:34.254Z,8.84
2022-12-22T11:43:58.803Z,8.67
2022-12-22T11:47:13.332Z,8.85
2022-12-22T11:51:01.236Z,9.08
2022-12-22T11:54:44.155Z,9.15
2022-12-22T11:58:11.880Z,9.23
2022-12-22T12:01:41.583Z,9.30
2022-12-22T12:05:27.531Z,9.49
2022-12-22T12:08:43.690Z,9.47
2022-12-22T12:11:59.497Z,9.96
2022-12-22T12:15:20.680Z,9.77
2022-12-22T12:18:57.957Z,10.34
2022-12-22T12:22:07.258Z,10.44
2022-12-22T12:25:26.565Z,10.05
2022-12-22T12:28:39.901Z,10.32
2022-12-22T12:31:52.456Z,9.81
2022-12-22T12:35:06.805Z,9.81
2022-12-22T12:38:47.917Z,10.13
2022-12-22T12:41:57.678Z,10.28
2022-12-22T12:45:05.307Z,10.70
2022-12-22T12:48:42.582Z,10.73
2022-12-22T12:51:51.079Z,11.41
2022-12-22T12:55:31.406Z,11.10
2022-12-22T12:58:53.927Z,11.08
2022-12-22T13:02:01.645Z,11.20
2022-12-22T13:05:28.870Z,11.20
2022-12-22T13:12:52.333Z,11.47
2022-12-22T13:16:33.818Z,11.08
2022-12-22T13:19:40.307Z,11.33
2022-12-22T13:22:47.599Z,11.35
2022-12-22T13:25:59.333Z,11.13
2022-12-22T13:29:11.144Z,11.87
2022-12-22T13:32:26.618Z,11.57
2022-12-22T13:35:44.801Z,10.31
2022-12-22T13:39:01.898Z,9.90
2022-12-22T13:42:13.888Z,9.36
2022-12-22T13:45:30.747Z,8.40
2022-12-22T13:48:44.620Z,7.87
2022-12-22T13:51:53.235Z,7.52
2022-12-22T13:54:59.784Z,6.99
2022-12-22T13:58:16.776Z,6.91
2022-12-22T14:01:23.097Z,6.11
2022-12-22T14:04:29.843Z,5.52
2022-12-22T14:07:36.148Z,5.74
2022-12-22T14:10:45.675Z,6.23
2022-12-22T14:13:53.213Z,6.00
2022-12-22T14:17:01.013Z,5.62
2022-12-22T14:20:18.880Z,5.45
2022-12-22T14:23:30.702Z,5.00
2022-12-22T14:26:37.832Z,4.65
2022-12-22T14:29:46.398Z,4.53
2022-12-22T14:32:55.973Z,4.22
2022-12-22T14:36:07.681Z,4.28
2022-12-22T14:39:24.052Z,4.19
2022-12-22T14:42:31.995Z,4.02
2022-12-22T14:45:39.963Z,3.90
2022-12-22T14:48:48.511Z,3.86
2022-12-22T14:52:01.110Z,3.68
2022-12-22T14:55:23.995Z,3.38
2022-12-22T14:58:34.314Z,4.20
2022-12-22T15:01:42.191Z,4.54
2022-12-22T15:04:48.477Z,3.85
2022-12-22T15:08:06.604Z,3.17
2022-12-22T15:11:16.691Z,2.87
2022-12-22T15:14:24.904Z,2.88
2022-12-22T15:17:32.636Z,2.48
2022-12-22T15:20:40.896Z,2.92
2022-12-22T15:23:47.833Z,2.38
2022-12-22T15:26:54.207Z,2.46
2022-12-22T15:30:00.486Z,2.49
2022-12-22T15:33:14.380Z,2.11
2022-12-22T15:36:20.641Z,2.05
2022-12-22T15:39:27.245Z,2.45
2022-12-22T15:42:33.848Z,2.33
2022-12-22T15:45:41.106Z,1.75
2022-12-22T15:48:49.431Z,1.85
2022-12-22T15:51:58.626Z,1.95
2022-12-22T15:55:05.467Z,1.84
2022-12-22T15:58:14.257Z,1.49
2022-12-22T16:01:20.581Z,1.50
2022-12-22T16:04:28.629Z,1.56
2022-12-22T16:07:35.318Z,1.38
2022-12-22T16:10:42.246Z,1.27
2022-12-22T16:13:50.593Z,0.86
2022-12-22T16:16:56.779Z,1.15
2022-12-22T16:20:05.309Z,0.71
2022-12-22T16:23:17.003Z,0.72
2022-12-22T16:26:23.929Z,0.66
2022-12-22T16:29:30.206Z,0.84
2022-12-22T16:32:36.389Z,1.00
2022-12-22T16:35:44.274Z,0.95
2022-12-22T16:38:50.756Z,0.95
2022-12-22T16:42:00.006Z,0.85
2022-12-22T16:45:15.598Z,0.98
2022-12-22T16:48:30.665Z,1.00
2022-12-22T16:51:45.494Z,0.70
2022-12-22T16:54:52.921Z,0.72
2022-12-22T16:57:59.691Z,0.62
2022-12-22T17:01:06.802Z,0.44
2022-12-22T17:04:17.100Z,0.29
2022-12-22T17:07:24.896Z,0.53
2022-12-22T17:10:31.359Z,0.65
2022-12-22T17:13:38.589Z,0.57
2022-12-22T17:16:44.611Z,0.49
2022-12-22T17:19:51.792Z,0.46
2022-12-22T17:23:01.853Z,0.49
2022-12-22T17:26:10.473Z,0.49
2022-12-22T17:29:18.781Z,0.51
2022-12-22T17:32:25.370Z,0.40
2022-12-22T17:35:33.441Z,0.45
2022-12-22T17:38:41.348Z,0.42
2022-12-22T17:41:55.915Z,0.41
2022-12-22T17:45:03.567Z,0.27
2022-12-22T17:48:10.174Z,0.23
2022-12-22T17:51:18.586Z,0.23
2022-12-22T17:54:27.848Z,0.08
2022-12-22T17:57:36.781Z,-0.40
2022-12-22T18:00:43.330Z,-0.58
2022-12-22T18:03:49.580Z,-0.65
2022-12-22T18:06:56.055Z,-0.88
2022-12-22T18:10:03.601Z,-0.65
2022-12-22T18:13:16.773Z,-0.62
2022-12-22T18:16:23.361Z,-0.46
2022-12-22T18:19:29.629Z,-0.54
2022-12-22T18:22:36.020Z,-0.30
2022-12-22T18:25:43.821Z,-0.25
2022-12-22T18:28:50.648Z,-0.24
2022-12-22T18:31:56.667Z,-0.22
2022-12-22T18:35:03.203Z,-0.16
2022-12-22T18:38:23.358Z,-0.36
2022-12-22T18:41:34.829Z,-0.35
2022-12-22T18:44:40.944Z,-0.65
2022-12-22T18:47:47.499Z,-0.63
2022-12-22T18:50:53.937Z,-0.41
2022-12-22T18:54:00.106Z,-0.40
2022-12-22T18:57:14.357Z,-0.82
2022-12-22T19:00:22.375Z,-0.76
2022-12-22T19:03:30.782Z,-0.86
2022-12-22T19:06:38.083Z,-0.99
2022-12-22T19:09:44.346Z,-1.08
2022-12-22T19:12:53.898Z,-1.29
2022-12-22T19:16:00.778Z,-1.23
2022-12-22T19:19:06.967Z,-0.87
2022-12-22T19:22:14.525Z,-0.93
2022-12-22T19:25:23.316Z,-0.81
2022-12-22T19:28:34.418Z,-0.94
2022-12-22T19:31:40.952Z,-1.27
2022-12-22T19:34:47.339Z,-1.33
2022-12-22T19:37:54.651Z,-1.12
2022-12-22T19:41:03.156Z,-0.95
2022-12-22T19:44:19.037Z,-0.81
2022-12-22T19:47:28.485Z,-0.95
2022-12-22T19:50:34.362Z,-0.94
2022-12-22T19:53:40.469Z,-0.97
2022-12-22T19:56:49.877Z,-0.88
2022-12-22T19:59:57.100Z,-1.05
2022-12-22T20:03:03.504Z,-1.81
2022-12-22T20:06:10.069Z,-1.81
2022-12-22T20:09:16.188Z,-1.67
2022-12-22T20:12:27.665Z,-2.06
2022-12-22T20:15:38.135Z,-2.07
2022-12-22T20:18:46.703Z,-1.86
2022-12-22T20:21:53.847Z,-1.28
2022-12-22T20:25:00.807Z,-1.66
2022-12-22T20:28:17.166Z,-1.46
2022-12-22T20:31:25.773Z,-1.47
2022-12-22T20:34:31.991Z,-1.48
2022-12-22T20:37:38.099Z,-1.69
2022-12-22T20:40:44.728Z,-1.74
2022-12-22T20:43:51.198Z,-1.37
2022-12-22T20:46:59.721Z,-1.48
2022-12-22T20:50:20.139Z,-1.33
2022-12-22T20:53:26.481Z,-1.38
2022-12-22T20:56:34.926Z,-1.25
2022-12-22T20:59:41.215Z,-1.15
2022-12-22T21:02:48.868Z,-1.24
2022-12-22T21:05:55.594Z,-1.58
2022-12-22T21:09:03.621Z,-1.64
2022-12-22T21:12:09.825Z,-1.68
2022-12-22T21:15:21.329Z,-1.38
2022-12-22T21:18:28.761Z,-1.39
2022-12-22T21:21:34.943Z,-1.49
2022-12-22T21:24:41.925Z,-1.49
2022-12-22T21:27:50.428Z,-1.47
2022-12-22T21:30:56.807Z,-1.97
2022-12-22T21:34:04.476Z,-2.29
2022-12-22T21:37:17.596Z,-2.64
2022-12-22T21:40:25.677Z,-2.79
2022-12-22T21:43:31.689Z,-2.67
2022-12-22T21:46:38.005Z,-2.51
2022-12-22T21:49:45.572Z,-2.20
2022-12-22T21:52:51.483Z,-1.88
2022-12-22T21:55:57.604Z,-1.93
2022-12-22T21:59:04.328Z,-1.86
2022-12-22T22:02:17.548Z,-1.80
2022-12-22T22:05:27.842Z,-2.00
2022-12-22T22:08:34.090Z,-2.22
2022-12-22T22:12:00.192Z,-2.09
2022-12-22T22:15:08.007Z,-1.69
2022-12-22T22:18:17.698Z,-1.75
2022-12-22T22:21:25.518Z,-1.86
2022-12-22T22:24:32.201Z,-1.91
2022-12-22T22:27:42.913Z,-2.00
2022-12-22T22:30:52.642Z,-2.39
2022-12-22T22:33:59.070Z,-2.66
2022-12-22T22:37:07.195Z,-2.44
2022-12-22T22:40:15.990Z,-2.29
2022-12-22T22:43:22.226Z,-2.53
2022-12-22T22:46:28.459Z,-2.62
2022-12-22T22:49:34.831Z,-2.32
2022-12-22T22:52:42.656Z,-2.11
2022-12-22T22:55:49.202Z,-2.21
2022-12-22T22:58:55.535Z,-1.77
2022-12-22T23:02:02.220Z,-1.88
2022-12-22T23:05:09.116Z,-2.09
2022-12-22T23:08:16.738Z,-1.85
2022-12-22T23:11:23.202Z,-1.88
2022-12-22T23:14:29.653Z,-1.69
2022-12-22T23:17:36.076Z,-1.72
2022-12-22T23:20:45.797Z,-2.14
2022-12-22T23:23:57.242Z,-2.13
2022-12-22T23:27:03.784Z,-2.48
2022-12-22T23:30:11.241Z,-1.90
2022-12-22T23:33:17.905Z,-1.71
2022-12-22T23:36:24.239Z,-1.62
2022-12-22T23:39:32.276Z,-1.62
2022-12-22T23:42:38.865Z,-2.06
2022-12-22T23:45:44.994Z,-1.93
2022-12-22T23:48:55.609Z,-1.59
2022-12-22T23:52:02.267Z,-1.56
2022-12-22T23:55:11.246Z,-1.88
2022-12-22T23:58:18.685Z,-1.61
